Weather reports worldwide

Advertisment
Valencia, Spain (8285): temperature & dewpoint: 04.04.2020 20:00:00 - 10.04.2020 20:00:00 (CEST)Valencia, Spain (8285): wind speed & gusts: 04.04.2020 20:00:00 - 10.04.2020 20:00:00 (CEST)Valencia, Spain (8285): wind direction: 04.04.2020 20:00:00 - 10.04.2020 20:00:00 (CEST)Valencia, Spain (8285): precipitation: 04.04.2020 20:00:00 - 10.04.2020 20:00:00 (CEST)
Date & Time tt [°C] td [°C] ff [km/h] ff [kn] fx [km/h] fx [kn] dd rr [mm]
10.04.2020 20:00:00 - - - - - - - -
10.04.2020 19:00:00 17,3 11,3 0 0 12 7 NE 0,0
10.04.2020 18:00:00 17,8 9,9 2 1 13 7 NE 0,0
10.04.2020 17:00:00 18,0 8,8 4 2 19 10 E 0,0
10.04.2020 16:00:00 18,6 6,5 7 4 18 10 ESE 0,0
10.04.2020 15:00:00 17,4 7,5 11 6 19 10 E 0,0
10.04.2020 14:00:00 18,8 4,6 5 3 14 8 ESE -
10.04.2020 13:00:00 19,1 5,2 2 1 9 5 N 0,0
10.04.2020 12:00:00 17,7 5,6 2 1 7 4 SSW 0,0
10.04.2020 11:00:00 16,3 8,0 4 2 7 4 WSW 0,0
10.04.2020 10:00:00 15,0 8,5 3 2 8 4 SW 0,0
10.04.2020 09:00:00 14,2 10,0 1 0 6 3 WSW 0,0
10.04.2020 08:00:00 13,8 11,0 2 1 6 4 WSW -
10.04.2020 07:00:00 13,8 11,1 3 1 5 3 WSW 0,0
10.04.2020 06:00:00 14,0 11,3 1 1 6 3 WSW 0,0
10.04.2020 05:00:00 14,1 11,3 2 1 5 3 WSW 0,0
10.04.2020 04:00:00 14,4 11,4 0 0 0 0 N 0,0
10.04.2020 03:00:00 14,8 11,4 0 0 5 3 N 0,0
10.04.2020 02:00:00 14,9 11,5 3 1 6 3 NNW -
10.04.2020 01:00:00 15,0 11,8 4 2 7 4 N 0,0
10.04.2020 00:00:00 15,2 12,0 4 2 8 4 N 0,0
09.04.2020 23:00:00 15,5 12,1 3 1 8 5 N 0,0
09.04.2020 22:00:00 15,8 12,0 1 0 8 5 N 0,0
09.04.2020 21:00:00 16,0 11,6 1 1 14 7 E 0,0
09.04.2020 20:00:00 16,1 11,3 8 5 16 9 E -
09.04.2020 19:00:00 16,5 10,6 9 5 17 9 E 0,0
09.04.2020 18:00:00 17,2 9,4 5 3 20 11 E 0,0
09.04.2020 17:00:00 17,3 8,7 4 2 19 11 E 0,0
09.04.2020 16:00:00 18,2 8,8 6 3 19 10 E 0,0
09.04.2020 15:00:00 17,2 7,8 5 3 18 10 ESE 0,0
09.04.2020 14:00:00 17,4 7,5 6 3 16 8 ESE -
09.04.2020 13:00:00 17,2 6,4 5 3 12 7 ESE 0,0
09.04.2020 12:00:00 17,8 6,0 3 2 10 6 S 0,0
09.04.2020 11:00:00 16,9 7,0 3 1 8 5 N 0,0
09.04.2020 10:00:00 13,7 6,3 4 2 8 4 WSW 0,0
09.04.2020 09:00:00 10,8 6,2 1 0 8 4 W 0,0
09.04.2020 08:00:00 10,2 6,0 4 2 9 5 WSW -
09.04.2020 07:00:00 10,5 6,5 3 2 10 5 WSW 0,0
09.04.2020 06:00:00 10,7 6,8 2 1 6 3 WSW 0,0
09.04.2020 05:00:00 11,1 7,2 1 0 5 3 SW 0,0
09.04.2020 04:00:00 11,6 7,9 0 0 6 3 WSW 0,0
09.04.2020 03:00:00 11,7 8,0 0 0 3 2 WNW 0,0
09.04.2020 02:00:00 12,3 8,2 1 0 7 4 N -
09.04.2020 01:00:00 12,3 8,4 0 0 3 2 N 0,0
09.04.2020 00:00:00 13,2 8,3 0 0 7 4 NNW 0,0
08.04.2020 23:00:00 14,2 8,6 4 2 8 4 N 0,0
08.04.2020 22:00:00 14,4 8,4 3 2 9 5 N 0,0
08.04.2020 21:00:00 15,0 8,0 1 1 13 7 NNE 0,0
08.04.2020 20:00:00 15,7 7,7 4 2 18 10 NNE -
08.04.2020 19:00:00 16,2 8,9 3 2 21 12 NE 0,0
08.04.2020 18:00:00 16,6 6,7 8 4 22 12 ESE 0,0
08.04.2020 17:00:00 17,1 8,8 7 4 23 13 E 0,0
08.04.2020 16:00:00 17,3 9,5 12 7 26 14 ESE 0,0
08.04.2020 15:00:00 17,6 9,5 12 6 22 12 ESE 0,0
08.04.2020 14:00:00 18,1 6,9 7 4 18 10 E -
08.04.2020 13:00:00 19,0 6,2 4 2 13 7 NNE 0,0
08.04.2020 12:00:00 18,4 7,2 4 2 10 5 N 0,0
08.04.2020 11:00:00 16,8 9,5 1 1 8 4 W 0,0
08.04.2020 10:00:00 13,3 9,6 0 0 6 4 SW 0,0
08.04.2020 09:00:00 11,5 9,4 1 1 9 5 WNW 0,0
08.04.2020 08:00:00 11,1 9,4 2 1 6 4 WSW -
08.04.2020 07:00:00 11,2 9,5 1 1 6 4 WSW 0,0
08.04.2020 06:00:00 11,8 9,9 2 1 5 3 WSW 0,0
08.04.2020 05:00:00 12,0 9,9 2 1 4 2 WSW 0,0
08.04.2020 04:00:00 12,3 9,7 0 0 5 3 W 0,0
08.04.2020 03:00:00 13,1 10,1 3 1 5 3 N 0,0
08.04.2020 02:00:00 14,1 10,5 3 2 6 4 N -
08.04.2020 01:00:00 14,6 9,6 1 1 8 5 N 0,0
08.04.2020 00:00:00 14,9 10,1 3 1 6 3 N 0,0
07.04.2020 23:00:00 15,2 10,6 1 1 10 5 N 0,0
07.04.2020 22:00:00 15,2 10,4 2 1 9 5 N 0,0
07.04.2020 21:00:00 15,3 10,1 2 1 10 6 ESE 0,0
07.04.2020 20:00:00 15,9 9,8 3 2 16 8 ENE -
07.04.2020 19:00:00 16,5 9,9 3 2 18 10 NNE 0,0
07.04.2020 18:00:00 16,7 9,4 8 4 19 10 E 0,0
07.04.2020 17:00:00 17,3 8,7 7 4 18 10 ESE 0,0
07.04.2020 16:00:00 18,1 8,4 4 2 18 10 E 0,0
07.04.2020 15:00:00 19,1 8,7 8 5 18 10 NNE 0,0
07.04.2020 14:00:00 16,9 7,6 8 5 18 10 E -
07.04.2020 13:00:00 16,6 10,5 3 2 16 9 ENE 0,0
07.04.2020 12:00:00 15,9 11,1 4 2 18 10 ENE 0,0
07.04.2020 11:00:00 15,4 11,4 2 1 12 7 NE 0,0
07.04.2020 10:00:00 14,8 10,8 6 3 10 5 N 0,0
07.04.2020 09:00:00 13,7 9,9 4 2 8 4 N 0,0
07.04.2020 08:00:00 13,3 10,1 0 0 7 4 NNW -
07.04.2020 07:00:00 12,9 10,1 2 1 5 3 N 0,0
07.04.2020 06:00:00 13,0 9,6 2 1 8 4 N 0,0
07.04.2020 05:00:00 13,4 10,2 4 2 8 4 N 0,0
07.04.2020 04:00:00 13,9 11,1 3 2 6 3 N 0,0
07.04.2020 03:00:00 14,1 11,1 3 1 6 4 N 0,0
07.04.2020 02:00:00 14,5 10,9 2 1 9 5 NNE -
07.04.2020 01:00:00 14,4 10,8 5 3 13 7 N 0,0
07.04.2020 00:00:00 14,7 11,1 3 2 10 5 N 0,0
06.04.2020 23:00:00 14,8 11,0 4 2 9 5 N 0,0
06.04.2020 22:00:00 14,9 11,1 1 1 10 5 NNE 0,0
06.04.2020 21:00:00 15,2 10,6 0 0 14 7 N 0,0
06.04.2020 20:00:00 15,5 10,3 3 2 21 11 ESE -
06.04.2020 19:00:00 15,7 10,0 3 2 16 8 ESE 0,0
06.04.2020 18:00:00 15,8 9,7 4 2 20 11 E 0,0
06.04.2020 17:00:00 15,7 9,4 7 4 20 11 ESE 0,0
06.04.2020 16:00:00 16,3 8,8 7 4 21 11 E 0,0
06.04.2020 15:00:00 16,7 8,4 7 4 21 12 E 0,0
06.04.2020 14:00:00 17,1 8,3 8 4 19 10 E -
06.04.2020 13:00:00 16,0 8,3 7 4 17 9 E 0,0
06.04.2020 12:00:00 15,4 8,6 8 4 16 9 E 0,0
06.04.2020 11:00:00 15,9 8,9 3 2 11 6 S 0,0
06.04.2020 10:00:00 13,9 9,2 1 0 6 3 WSW 0,0
06.04.2020 09:00:00 12,0 8,7 3 1 5 3 WSW 0,0
06.04.2020 08:00:00 11,2 8,4 1 1 6 3 WSW -
06.04.2020 07:00:00 11,3 8,5 2 1 5 3 WSW 0,0
06.04.2020 06:00:00 11,7 8,7 1 1 5 3 SW 0,0
06.04.2020 05:00:00 11,8 9,0 1 1 5 3 WSW 0,0
06.04.2020 04:00:00 11,9 9,3 2 1 5 3 WSW 0,0
06.04.2020 03:00:00 11,9 9,5 1 1 6 3 NNW 0,0
06.04.2020 02:00:00 12,1 9,7 4 2 6 4 N -
06.04.2020 01:00:00 12,1 9,3 3 2 6 3 NNW 0,0
06.04.2020 00:00:00 12,5 8,6 3 1 6 4 SSW 0,0
05.04.2020 23:00:00 13,4 8,9 2 1 8 4 SE 0,0
05.04.2020 22:00:00 14,3 9,1 2 1 13 7 SE 0,0
05.04.2020 21:00:00 14,6 8,6 5 3 12 7 ESE 0,0
05.04.2020 20:00:00 15,1 7,7 8 4 16 9 ESE -
05.04.2020 19:00:00 15,7 6,2 8 5 18 10 E 0,0
05.04.2020 18:00:00 15,9 6,1 10 5 21 11 E 0,0
05.04.2020 17:00:00 16,3 5,9 8 4 24 13 E 0,0
05.04.2020 16:00:00 17,3 6,2 5 3 23 12 ESE 0,0
05.04.2020 15:00:00 16,5 7,2 7 4 18 10 E 0,0
05.04.2020 14:00:00 16,6 7,0 7 4 18 10 ESE -
05.04.2020 13:00:00 16,3 7,3 5 3 18 10 ESE 0,0
05.04.2020 12:00:00 16,0 8,0 4 2 11 6 NE 0,0
05.04.2020 11:00:00 14,3 7,1 4 2 9 5 NNE 0,0
05.04.2020 10:00:00 12,8 6,6 0 0 3 1 SSW 0,0
05.04.2020 09:00:00 11,4 6,5 0 0 2 1 WSW 0,0
05.04.2020 08:00:00 10,7 6,3 1 0 5 3 WSW -
05.04.2020 07:00:00 11,1 6,8 2 1 6 4 NNW 0,0
05.04.2020 06:00:00 11,6 7,3 3 2 10 5 N 0,0
05.04.2020 05:00:00 11,8 7,7 5 3 9 5 N 0,0
05.04.2020 04:00:00 12,0 8,1 4 2 9 5 N 0,0
05.04.2020 03:00:00 12,2 9,2 2 1 11 6 N 0,0
05.04.2020 02:00:00 12,7 10,1 3 2 10 6 N -
05.04.2020 01:00:00 12,7 10,1 5 3 11 6 NNE 0,0
05.04.2020 00:00:00 12,3 9,0 3 1 8 4 N 0,0
04.04.2020 23:00:00 13,1 9,0 1 1 14 8 W 0,0
04.04.2020 22:00:00 14,0 9,0 0 0 13 7 N 0,0
04.04.2020 21:00:00 14,6 8,8 7 4 18 10 E 0,1
04.04.2020 20:00:00 15,0 9,2 5 3 18 10 ESE -

tt = temperature
td = dewpoint
ff = wind speed
fx = gusts
dd = wind direction
rr = precipitation

Next stations